createdAt,value
2022-10-17T00:00:15.479Z,101942.28
2022-10-17T00:02:42.645Z,101949.94
2022-10-17T00:05:11.865Z,101942.94
2022-10-17T00:07:39.246Z,101946.00
2022-10-17T00:10:07.283Z,101946.97
2022-10-17T00:12:34.897Z,101951.88
2022-10-17T00:15:03.215Z,101952.50
2022-10-17T00:17:31.162Z,101963.78
2022-10-17T00:19:59.614Z,101966.41
2022-10-17T00:22:27.306Z,101956.63
2022-10-17T00:24:54.541Z,101956.44
2022-10-17T00:27:21.857Z,101960.97
2022-10-17T00:29:50.002Z,101964.47
2022-10-17T00:32:17.431Z,101970.31
2022-10-17T00:34:44.863Z,101964.69
2022-10-17T00:37:12.242Z,101956.84
2022-10-17T00:39:39.518Z,101955.13
2022-10-17T00:42:06.743Z,101963.72
2022-10-17T00:44:33.921Z,101962.28
2022-10-17T00:47:04.988Z,101964.91
2022-10-17T00:49:34.615Z,101968.56
2022-10-17T00:52:03.468Z,101957.72
2022-10-17T00:54:50.170Z,101974.44
2022-10-17T00:57:17.861Z,101973.13
2022-10-17T00:59:47.411Z,101963.38
2022-10-17T01:02:16.487Z,101959.47
2022-10-17T01:04:45.249Z,101970.97
2022-10-17T01:07:13.339Z,101970.56
2022-10-17T01:09:41.583Z,101973.94
2022-10-17T01:12:27.092Z,101976.81
2022-10-17T01:15:13.561Z,101973.66
2022-10-17T01:17:46.764Z,101974.56
2022-10-17T01:20:29.052Z,101978.13
2022-10-17T01:23:14.868Z,101977.63
2022-10-17T01:25:42.353Z,101978.09
2022-10-17T01:28:18.929Z,101980.50
2022-10-17T01:30:58.825Z,101979.00
2022-10-17T01:33:38.405Z,101982.91
2022-10-17T01:36:25.297Z,101981.81
2022-10-17T01:38:57.464Z,101995.28
2022-10-17T01:41:48.112Z,101985.56
2022-10-17T01:44:48.539Z,101985.88
2022-10-17T01:47:21.939Z,101988.97
2022-10-17T01:49:51.587Z,101991.16
2022-10-17T01:52:20.704Z,101998.53
2022-10-17T01:54:54.206Z,101987.19
2022-10-17T01:57:31.612Z,101990.66
2022-10-17T02:00:00.471Z,102005.91
2022-10-17T02:02:27.966Z,102012.13
2022-10-17T02:04:57.107Z,102016.69
2022-10-17T02:07:24.494Z,102015.41
2022-10-17T02:09:51.737Z,102015.59
2022-10-17T02:12:31.482Z,102025.44
2022-10-17T02:15:01.439Z,102021.47
2022-10-17T02:17:47.736Z,102029.50
2022-10-17T02:20:25.776Z,102032.06
2022-10-17T02:22:53.911Z,102029.00
2022-10-17T02:25:29.744Z,102031.97
2022-10-17T02:28:12.316Z,102021.97
2022-10-17T02:30:50.507Z,102030.88
2022-10-17T02:33:27.271Z,102036.75
2022-10-17T02:35:59.081Z,102032.00
2022-10-17T02:38:29.391Z,102048.78
2022-10-17T02:40:56.933Z,102052.94
2022-10-17T02:43:24.227Z,102055.53
2022-10-17T02:45:53.978Z,102064.75
2022-10-17T02:48:24.277Z,102060.69
2022-10-17T02:51:07.187Z,102057.97
2022-10-17T02:53:54.825Z,102065.78
2022-10-17T02:56:22.886Z,102066.34
2022-10-17T02:58:56.379Z,102068.84
2022-10-17T03:01:24.489Z,102064.59
2022-10-17T03:03:52.036Z,102058.31
2022-10-17T03:06:19.241Z,102065.56
2022-10-17T03:08:46.599Z,102077.31
2022-10-17T03:11:13.900Z,102091.50
2022-10-17T03:13:41.327Z,102080.81
2022-10-17T03:16:08.718Z,102099.22
2022-10-17T03:18:36.527Z,102106.19
2022-10-17T03:21:04.709Z,102098.91
2022-10-17T03:23:32.040Z,102098.56
2022-10-17T03:26:03.337Z,102104.44
2022-10-17T03:28:30.934Z,102106.09
2022-10-17T03:30:58.169Z,102111.59
2022-10-17T03:33:25.380Z,102104.09
2022-10-17T03:35:52.619Z,102100.34
2022-10-17T03:38:20.139Z,102113.19
2022-10-17T03:40:54.549Z,102114.91
2022-10-17T03:43:21.934Z,102118.53
2022-10-17T03:45:49.149Z,102122.03
2022-10-17T03:48:16.335Z,102129.59
2022-10-17T03:50:43.551Z,102130.94
2022-10-17T03:53:11.006Z,102131.81
2022-10-17T03:55:38.585Z,102124.28
2022-10-17T03:58:06.131Z,102133.06
2022-10-17T04:00:35.751Z,102135.09
2022-10-17T04:03:03.270Z,102151.25
2022-10-17T04:05:30.563Z,102152.25
2022-10-17T04:07:59.864Z,102158.78
2022-10-17T04:10:49.655Z,102165.09
2022-10-17T04:13:16.947Z,102156.78
2022-10-17T04:15:53.883Z,102170.78
2022-10-17T04:18:21.726Z,102170.03
2022-10-17T04:20:48.958Z,102175.78
2022-10-17T04:23:16.543Z,102187.78
2022-10-17T04:25:43.855Z,102176.81
2022-10-17T04:28:11.136Z,102169.41
2022-10-17T04:30:42.363Z,102166.78
2022-10-17T04:33:12.702Z,102171.53
2022-10-17T04:35:40.077Z,102180.97
2022-10-17T04:38:08.321Z,102176.66
2022-10-17T04:40:36.562Z,102176.00
2022-10-17T04:43:04.376Z,102176.34
2022-10-17T04:45:36.070Z,102181.38
2022-10-17T04:48:05.716Z,102179.94
2022-10-17T04:50:33.089Z,102185.75
2022-10-17T04:53:18.783Z,102195.47
2022-10-17T04:55:48.134Z,102199.00
2022-10-17T04:58:15.801Z,102206.00
2022-10-17T05:00:43.785Z,102202.69
2022-10-17T05:03:15.352Z,102206.84
2022-10-17T05:05:43.570Z,102221.41
2022-10-17T05:08:12.196Z,102215.53
2022-10-17T05:10:40.716Z,102210.63
2022-10-17T05:13:08.833Z,102220.53
2022-10-17T05:15:37.529Z,102217.50
2022-10-17T05:18:05.879Z,102215.44
2022-10-17T05:20:33.688Z,102217.09
2022-10-17T05:23:01.729Z,102213.81
2022-10-17T05:25:34.183Z,102217.81
2022-10-17T05:28:01.447Z,102231.31
2022-10-17T05:30:29.948Z,102231.56
2022-10-17T05:33:01.519Z,102240.50
2022-10-17T05:35:29.093Z,102244.97
2022-10-17T05:37:56.593Z,102248.03
2022-10-17T05:40:25.635Z,102248.25
2022-10-17T05:42:55.248Z,102260.88
2022-10-17T05:45:23.710Z,102253.63
2022-10-17T05:47:52.039Z,102251.69
2022-10-17T05:50:22.085Z,102250.97
2022-10-17T05:53:01.575Z,102255.81
2022-10-17T05:55:29.107Z,102259.75
2022-10-17T05:57:59.793Z,102256.03
2022-10-17T06:00:30.112Z,102254.84
2022-10-17T06:02:59.020Z,102259.28
2022-10-17T06:05:26.289Z,102253.75
2022-10-17T06:07:57.043Z,102255.63
2022-10-17T06:10:27.609Z,102261.44
2022-10-17T06:12:56.812Z,102269.72
2022-10-17T06:15:24.181Z,102267.34
2022-10-17T06:17:57.879Z,102256.97
2022-10-17T06:20:25.489Z,102271.31
2022-10-17T06:22:53.091Z,102278.50
2022-10-17T06:25:34.166Z,102281.50
2022-10-17T06:28:01.962Z,102286.03
2022-10-17T06:30:29.974Z,102298.63
2022-10-17T06:32:57.340Z,102295.75
2022-10-17T06:35:24.635Z,102304.75
2022-10-17T06:37:51.915Z,102314.81
2022-10-17T06:40:19.181Z,102318.09
2022-10-17T06:42:48.026Z,102320.25
2022-10-17T06:45:27.187Z,102326.19
2022-10-17T06:48:08.720Z,102331.06
2022-10-17T06:50:53.681Z,102341.38
2022-10-17T06:53:25.066Z,102342.06
2022-10-17T06:56:08.289Z,102345.22
2022-10-17T06:58:49.500Z,102352.56
2022-10-17T07:01:47.144Z,102354.13
2022-10-17T07:04:15.943Z,102364.34
2022-10-17T07:06:44.175Z,102362.47
2022-10-17T07:09:20.696Z,102366.56
2022-10-17T07:11:48.212Z,102358.78
2022-10-17T07:14:18.503Z,102360.91
2022-10-17T07:16:47.021Z,102361.31
2022-10-17T07:19:23.327Z,102362.59
2022-10-17T07:21:51.274Z,102360.72
2022-10-17T07:24:18.504Z,102370.88
2022-10-17T07:26:49.716Z,102373.44
2022-10-17T07:29:17.275Z,102375.81
2022-10-17T07:32:06.500Z,102378.28
2022-10-17T07:34:34.931Z,102375.88
2022-10-17T07:37:02.914Z,102385.16
2022-10-17T07:39:30.245Z,102389.97
2022-10-17T07:41:58.933Z,102390.50
2022-10-17T07:44:26.391Z,102383.31
2022-10-17T07:46:54.795Z,102395.03
2022-10-17T07:49:22.237Z,102402.78
2022-10-17T07:51:50.127Z,102402.59
2022-10-17T07:54:17.648Z,102412.06
2022-10-17T07:56:50.484Z,102403.19
2022-10-17T07:59:18.753Z,102414.34
2022-10-17T08:01:46.035Z,102406.03
2022-10-17T08:04:13.322Z,102403.94
2022-10-17T08:06:40.488Z,102402.97
2022-10-17T08:09:07.780Z,102407.78
2022-10-17T08:11:36.756Z,102409.34
2022-10-17T08:14:04.115Z,102411.09
2022-10-17T08:16:31.376Z,102415.97
2022-10-17T08:18:59.059Z,102405.81
2022-10-17T08:21:26.420Z,102419.78
2022-10-17T08:23:53.980Z,102412.06
2022-10-17T08:26:21.323Z,102424.13
2022-10-17T08:28:49.032Z,102429.03
2022-10-17T08:31:19.268Z,102422.66
2022-10-17T08:33:47.300Z,102438.00
2022-10-17T08:36:15.772Z,102444.97
2022-10-17T08:38:43.794Z,102443.66
2022-10-17T08:41:31.129Z,102434.50
2022-10-17T08:44:16.545Z,102441.88
2022-10-17T08:46:45.492Z,102443.38
2022-10-17T08:49:16.410Z,102444.59
2022-10-17T08:52:04.039Z,102460.69
2022-10-17T08:54:36.849Z,102449.09
2022-10-17T08:57:04.373Z,102451.25
2022-10-17T08:59:31.563Z,102454.19
2022-10-17T09:02:03.728Z,102453.94
2022-10-17T09:06:59.072Z,102462.75
2022-10-17T09:09:42.178Z,102459.75
2022-10-17T09:12:17.978Z,102464.00
2022-10-17T09:15:05.869Z,102467.44
2022-10-17T09:17:33.166Z,102464.03
2022-10-17T09:20:17.727Z,102460.94
2022-10-17T09:22:50.496Z,102459.38
2022-10-17T09:25:19.401Z,102458.94
2022-10-17T09:27:48.296Z,102447.22
2022-10-17T09:30:44.650Z,102452.13
2022-10-17T09:33:28.092Z,102457.63
2022-10-17T09:36:04.363Z,102456.28
2022-10-17T09:38:42.469Z,102465.00
2022-10-17T09:41:42.987Z,102463.66
2022-10-17T09:44:40.056Z,102462.50
2022-10-17T09:47:26.015Z,102461.31
2022-10-17T09:49:53.456Z,102468.06
2022-10-17T09:52:33.334Z,102463.09
2022-10-17T09:55:18.942Z,102469.09
2022-10-17T09:57:57.221Z,102468.47
2022-10-17T10:00:27.926Z,102476.66
2022-10-17T10:03:27.628Z,102474.88
2022-10-17T10:05:59.593Z,102485.25
2022-10-17T10:08:32.746Z,102485.75
2022-10-17T10:11:03.323Z,102481.94
2022-10-17T10:13:31.508Z,102476.25
2022-10-17T10:16:17.304Z,102481.28
2022-10-17T10:18:47.442Z,102474.72
2022-10-17T10:21:20.107Z,102477.91
2022-10-17T10:23:59.760Z,102484.22
2022-10-17T10:26:34.114Z,102490.53
2022-10-17T10:29:20.221Z,102496.88
2022-10-17T10:31:47.981Z,102492.84
2022-10-17T10:34:20.655Z,102496.72
2022-10-17T10:36:51.001Z,102496.06
2022-10-17T10:39:25.803Z,102501.06
2022-10-17T10:41:53.331Z,102496.47
2022-10-17T10:44:24.121Z,102499.16
2022-10-17T10:47:08.148Z,102510.81
2022-10-17T10:49:41.976Z,102510.03
2022-10-17T10:52:15.115Z,102505.66
2022-10-17T10:54:51.524Z,102506.94
2022-10-17T10:57:21.189Z,102499.13
2022-10-17T10:59:58.379Z,102497.50
2022-10-17T11:02:28.422Z,102495.91
2022-10-17T11:04:58.015Z,102498.84
2022-10-17T11:07:25.226Z,102496.06
2022-10-17T11:09:58.592Z,102496.91
2022-10-17T11:12:29.011Z,102495.59
2022-10-17T11:15:00.504Z,102497.84
2022-10-17T11:17:37.100Z,102482.00
2022-10-17T11:20:07.723Z,102506.53
2022-10-17T11:22:48.821Z,102494.19
2022-10-17T11:25:33.329Z,102487.16
2022-10-17T11:28:04.893Z,102486.34
2022-10-17T11:30:42.206Z,102480.84
2022-10-17T11:33:13.585Z,102486.09
2022-10-17T11:35:42.756Z,102487.59
2022-10-17T11:38:18.645Z,102489.22
2022-10-17T11:40:49.685Z,102490.44
2022-10-17T11:43:16.968Z,102486.88
2022-10-17T11:45:56.833Z,102472.09
2022-10-17T11:48:44.417Z,102469.69
2022-10-17T11:54:23.384Z,102454.94
2022-10-17T11:56:50.650Z,102444.59
2022-10-17T11:59:36.433Z,102447.38
2022-10-17T12:02:14.185Z,102442.03
2022-10-17T12:04:49.651Z,102448.84
2022-10-17T12:07:37.424Z,102446.84
2022-10-17T12:10:04.716Z,102450.75
2022-10-17T12:12:33.415Z,102444.38
2022-10-17T12:15:13.105Z,102446.44
2022-10-17T12:17:42.755Z,102427.66
2022-10-17T12:20:25.460Z,102433.34
2022-10-17T12:22:54.466Z,102428.00
2022-10-17T12:28:20.864Z,102441.63
2022-10-17T12:30:59.263Z,102432.81
2022-10-17T12:33:34.971Z,102437.97
2022-10-17T12:36:22.439Z,102437.41
2022-10-17T12:38:51.204Z,102442.66
2022-10-17T12:41:38.724Z,102442.25
2022-10-17T12:44:15.387Z,102446.88
2022-10-17T12:46:45.871Z,102437.88
2022-10-17T12:49:33.354Z,102435.06
2022-10-17T12:52:17.250Z,102440.72
2022-10-17T12:54:47.948Z,102443.66
2022-10-17T12:57:46.120Z,102438.44
2022-10-17T13:00:25.819Z,102436.06
2022-10-17T13:02:54.938Z,102428.03
2022-10-17T13:05:42.312Z,102433.78
2022-10-17T13:08:19.557Z,102431.63
2022-10-17T13:10:51.622Z,102441.75
2022-10-17T13:13:35.522Z,102430.13
2022-10-17T13:16:02.992Z,102429.88
2022-10-17T13:18:30.593Z,102416.56
2022-10-17T13:20:59.445Z,102421.38
2022-10-17T13:23:29.164Z,102423.16
2022-10-17T13:26:03.485Z,102413.97
2022-10-17T13:28:30.730Z,102414.06
2022-10-17T13:30:57.980Z,102410.25
2022-10-17T13:33:33.856Z,102411.31
2022-10-17T13:36:02.939Z,102411.78
2022-10-17T13:38:32.649Z,102406.13
2022-10-17T13:41:16.570Z,102404.94
2022-10-17T13:43:47.938Z,102413.44
2022-10-17T13:46:37.928Z,102411.28
2022-10-17T13:49:28.252Z,102400.56
2022-10-17T13:51:56.051Z,102383.66
2022-10-17T13:54:26.221Z,102387.00
2022-10-17T13:56:57.765Z,102387.03
2022-10-17T13:59:38.903Z,102379.81
2022-10-17T14:02:12.694Z,102365.69
2022-10-17T14:05:04.079Z,102356.97
2022-10-17T14:07:58.258Z,102358.50
2022-10-17T14:10:24.768Z,102363.31
2022-10-17T14:12:53.142Z,102365.28
2022-10-17T14:15:22.245Z,102373.25
2022-10-17T14:17:55.105Z,102368.28
2022-10-17T14:20:57.556Z,102373.69
2022-10-17T14:23:30.950Z,102353.28
2022-10-17T14:26:24.732Z,102364.19
2022-10-17T14:29:12.197Z,102367.47
2022-10-17T14:31:40.173Z,102370.59
2022-10-17T14:34:17.415Z,102363.72
2022-10-17T14:36:44.692Z,102360.47
2022-10-17T14:39:20.234Z,102350.91
2022-10-17T14:41:48.019Z,102358.28
2022-10-17T14:44:27.141Z,102362.69
2022-10-17T14:46:57.968Z,102347.16
2022-10-17T14:49:32.684Z,102344.38
2022-10-17T14:52:11.414Z,102351.34
2022-10-17T14:54:44.391Z,102346.41
2022-10-17T14:57:19.120Z,102336.38
2022-10-17T14:59:55.041Z,102338.72
2022-10-17T15:02:26.496Z,102324.19
2022-10-17T15:04:54.005Z,102309.00
2022-10-17T15:07:21.583Z,102312.81
2022-10-17T15:09:49.691Z,102310.88
2022-10-17T15:12:21.586Z,102310.31
2022-10-17T15:14:48.887Z,102299.59
2022-10-17T15:17:18.591Z,102299.59
2022-10-17T15:19:46.273Z,102287.19
2022-10-17T15:22:13.503Z,102279.53
2022-10-17T15:24:40.794Z,102263.09
2022-10-17T15:27:15.742Z,102266.06
2022-10-17T15:29:43.152Z,102266.38
2022-10-17T15:32:10.398Z,102275.66
2022-10-17T15:34:37.732Z,102266.81
2022-10-17T15:37:06.315Z,102261.63
2022-10-17T15:39:33.622Z,102263.56
2022-10-17T15:42:00.904Z,102261.44
2022-10-17T15:44:28.448Z,102263.88
2022-10-17T15:46:55.915Z,102250.31
2022-10-17T15:49:23.273Z,102262.19
2022-10-17T15:51:53.037Z,102264.44
2022-10-17T15:54:22.439Z,102248.34
2022-10-17T15:56:53.052Z,102241.72
2022-10-17T15:59:22.956Z,102243.59
2022-10-17T16:01:50.379Z,102235.94
2022-10-17T16:04:18.620Z,102239.44
2022-10-17T16:06:46.018Z,102247.44
2022-10-17T16:09:13.331Z,102247.91
2022-10-17T16:11:42.302Z,102246.81
2022-10-17T16:14:13.871Z,102239.03
2022-10-17T16:16:41.738Z,102241.09
2022-10-17T16:19:09.352Z,102235.66
2022-10-17T16:21:38.496Z,102227.41
2022-10-17T16:24:06.211Z,102226.63
2022-10-17T16:26:33.419Z,102217.03
2022-10-17T16:29:03.274Z,102220.97
2022-10-17T16:31:31.878Z,102219.44
2022-10-17T16:33:59.809Z,102217.31
2022-10-17T16:36:27.056Z,102209.69
2022-10-17T16:38:54.315Z,102209.69
2022-10-17T16:41:28.833Z,102202.31
2022-10-17T16:43:57.429Z,102204.25
2022-10-17T16:46:25.468Z,102200.56
2022-10-17T16:48:52.866Z,102201.88
2022-10-17T16:51:20.488Z,102196.03
2022-10-17T16:53:50.224Z,102177.66
2022-10-17T16:56:19.331Z,102159.19
2022-10-17T16:58:46.813Z,102154.50
2022-10-17T17:01:15.803Z,102160.59
2022-10-17T17:03:43.992Z,102159.19
2022-10-17T17:06:19.605Z,102160.19
2022-10-17T17:08:47.170Z,102149.38
2022-10-17T17:11:15.687Z,102142.16
2022-10-17T17:13:42.950Z,102150.59
2022-10-17T17:16:11.905Z,102143.66
2022-10-17T17:18:39.540Z,102139.50
2022-10-17T17:21:08.729Z,102141.03
2022-10-17T17:23:37.310Z,102133.44
2022-10-17T17:26:06.031Z,102131.91
2022-10-17T17:28:34.390Z,102130.59
2022-10-17T17:31:02.012Z,102121.47
2022-10-17T17:33:30.252Z,102129.38
2022-10-17T17:35:58.700Z,102123.00
2022-10-17T17:38:26.717Z,102114.09
2022-10-17T17:40:53.916Z,102115.94
2022-10-17T17:43:21.156Z,102113.88
2022-10-17T17:45:48.678Z,102107.25
2022-10-17T17:48:16.096Z,102102.13
2022-10-17T17:50:43.806Z,102094.34
2022-10-17T17:53:11.816Z,102092.59
2022-10-17T17:55:39.036Z,102099.97
2022-10-17T17:58:07.532Z,102095.19
2022-10-17T18:00:35.497Z,102088.88
2022-10-17T18:03:03.232Z,102078.88
2022-10-17T18:05:31.246Z,102081.06
2022-10-17T18:07:58.559Z,102065.19
2022-10-17T18:10:27.538Z,102048.25
2022-10-17T18:12:54.843Z,102039.22
2022-10-17T18:15:22.127Z,102034.09
2022-10-17T18:17:49.453Z,102056.31
2022-10-17T18:20:16.847Z,102038.47
2022-10-17T18:22:44.304Z,102026.97
2022-10-17T18:25:11.562Z,102020.31
2022-10-17T18:27:38.961Z,102017.16
2022-10-17T18:30:06.505Z,102007.56
2022-10-17T18:32:33.896Z,101996.13
2022-10-17T18:35:01.107Z,101992.47
2022-10-17T18:37:28.437Z,101982.25
2022-10-17T18:39:57.478Z,101979.69
2022-10-17T18:42:24.842Z,101978.66
2022-10-17T18:44:52.130Z,101976.97
2022-10-17T18:47:19.384Z,101966.16
2022-10-17T18:49:48.374Z,101968.97
2022-10-17T18:52:15.716Z,101982.38
2022-10-17T18:54:42.928Z,101976.44
2022-10-17T18:57:10.297Z,101971.59
2022-10-17T18:59:38.152Z,101967.84
2022-10-17T19:02:06.049Z,101961.63
2022-10-17T19:04:33.554Z,101939.56
2022-10-17T19:07:00.917Z,101925.53
2022-10-17T19:09:28.173Z,101913.00
2022-10-17T19:11:56.536Z,101905.66
2022-10-17T19:14:23.805Z,101899.50
2022-10-17T19:16:51.729Z,101900.56
2022-10-17T19:19:23.230Z,101901.53
2022-10-17T19:21:50.850Z,101899.25
2022-10-17T19:24:19.448Z,101888.81
2022-10-17T19:26:47.257Z,101861.50
2022-10-17T19:29:15.426Z,101870.75
2022-10-17T19:31:43.234Z,101867.69
2022-10-17T19:34:11.439Z,101881.31
2022-10-17T19:36:39.133Z,101893.41
2022-10-17T19:39:07.572Z,101883.16
2022-10-17T19:41:36.755Z,101886.56
2022-10-17T19:44:04.110Z,101882.94
2022-10-17T19:46:31.953Z,101874.91
2022-10-17T19:48:59.246Z,101862.31
2022-10-17T19:51:26.847Z,101850.94
2022-10-17T19:53:54.884Z,101858.19
2022-10-17T19:56:22.652Z,101852.97
2022-10-17T19:58:50.572Z,101865.19
2022-10-17T20:01:21.850Z,101837.66
2022-10-17T20:03:49.949Z,101847.00
2022-10-17T20:06:17.530Z,101842.63
2022-10-17T20:08:45.173Z,101831.50
2022-10-17T20:11:13.906Z,101816.97
2022-10-17T20:13:41.435Z,101821.34
2022-10-17T20:16:11.023Z,101804.59
2022-10-17T20:18:39.937Z,101798.94
2022-10-17T20:21:08.739Z,101791.44
2022-10-17T20:23:36.417Z,101780.13
2022-10-17T20:26:25.331Z,101772.63
2022-10-17T20:28:54.989Z,101770.88
2022-10-17T20:31:22.288Z,101773.13
2022-10-17T20:33:54.258Z,101774.56
2022-10-17T20:36:23.455Z,101769.16
2022-10-17T20:38:54.812Z,101755.50
2022-10-17T20:41:22.548Z,101758.63
2022-10-17T20:43:53.495Z,101749.28
2022-10-17T20:46:35.520Z,101748.28
2022-10-17T20:49:05.007Z,101732.94
2022-10-17T20:51:32.258Z,101729.88
2022-10-17T20:53:59.555Z,101706.91
2022-10-17T20:56:29.331Z,101700.56
2022-10-17T20:58:58.398Z,101699.69
2022-10-17T21:01:26.306Z,101709.56
2022-10-17T21:03:53.720Z,101699.94
2022-10-17T21:06:21.715Z,101699.69
2022-10-17T21:08:49.270Z,101683.13
2022-10-17T21:11:18.041Z,101673.22
2022-10-17T21:13:45.736Z,101679.22
2022-10-17T21:16:14.642Z,101683.59
2022-10-17T21:18:42.604Z,101669.13
2022-10-17T21:21:14.576Z,101667.88
2022-10-17T21:23:43.068Z,101669.56
2022-10-17T21:26:12.678Z,101666.00
2022-10-17T21:28:40.729Z,101645.47
2022-10-17T21:31:07.944Z,101656.03
2022-10-17T21:33:35.272Z,101674.53
2022-10-17T21:36:02.560Z,101684.16
2022-10-17T21:38:29.744Z,101678.72
2022-10-17T21:40:57.151Z,101679.75
2022-10-17T21:43:24.625Z,101668.91
2022-10-17T21:45:51.861Z,101672.78
2022-10-17T21:48:19.154Z,101680.44
2022-10-17T21:50:46.750Z,101679.16
2022-10-17T21:53:14.077Z,101690.19
2022-10-17T21:55:41.340Z,101678.38
2022-10-17T21:58:08.666Z,101680.59
2022-10-17T22:00:35.906Z,101674.16
2022-10-17T22:03:04.123Z,101679.09
2022-10-17T22:05:31.447Z,101664.34
2022-10-17T22:07:58.736Z,101670.81
2022-10-17T22:10:25.941Z,101663.34
2022-10-17T22:12:53.305Z,101653.50
2022-10-17T22:15:20.504Z,101647.28
2022-10-17T22:17:47.716Z,101644.34
2022-10-17T22:20:14.977Z,101639.44
2022-10-17T22:22:42.273Z,101648.50
2022-10-17T22:25:09.531Z,101641.19
2022-10-17T22:27:36.826Z,101640.91
2022-10-17T22:30:05.098Z,101644.59
2022-10-17T22:32:32.451Z,101646.34
2022-10-17T22:34:59.652Z,101636.47
2022-10-17T22:37:26.895Z,101624.34
2022-10-17T22:39:54.064Z,101632.78
2022-10-17T22:44:49.852Z,101626.53
2022-10-17T22:47:17.048Z,101641.13
2022-10-17T22:49:44.247Z,101639.91
2022-10-17T22:52:11.568Z,101626.53
2022-10-17T22:54:38.751Z,101626.06
2022-10-17T22:57:06.245Z,101604.72
2022-10-17T22:59:33.577Z,101607.06
2022-10-17T23:02:00.956Z,101608.31
2022-10-17T23:04:28.249Z,101606.31
2022-10-17T23:06:55.487Z,101606.69
2022-10-17T23:09:22.794Z,101604.34
2022-10-17T23:11:50.208Z,101588.56
2022-10-17T23:14:17.432Z,101602.13
2022-10-17T23:16:44.649Z,101604.22
2022-10-17T23:19:11.880Z,101598.91
2022-10-17T23:21:39.428Z,101608.06
2022-10-17T23:24:06.766Z,101612.03
2022-10-17T23:26:34.138Z,101590.75
2022-10-17T23:29:01.409Z,101590.25
2022-10-17T23:31:28.743Z,101589.50
2022-10-17T23:33:55.975Z,101597.41
2022-10-17T23:38:59.464Z,101599.66
2022-10-17T23:41:26.661Z,101597.59
2022-10-17T23:43:53.980Z,101597.06
2022-10-17T23:46:21.257Z,101596.88
2022-10-17T23:48:48.451Z,101586.44
2022-10-17T23:51:15.808Z,101594.97
2022-10-17T23:53:43.442Z,101593.72
2022-10-17T23:56:11.415Z,101594.69
2022-10-17T23:58:39.127Z,101588.06
